createdAt,value
2019-06-07T00:01:52.954Z,99.90
2019-06-07T00:04:21.516Z,99.90
2019-06-07T00:06:49.025Z,99.90
2019-06-07T00:09:21.751Z,99.90
2019-06-07T00:11:45.801Z,99.90
2019-06-07T00:14:15.738Z,99.90
2019-06-07T00:16:42.543Z,99.90
2019-06-07T00:19:10.024Z,99.90
2019-06-07T00:24:08.772Z,99.90
2019-06-07T00:26:55.105Z,99.90
2019-06-07T00:29:05.683Z,99.90
2019-06-07T00:31:33.115Z,99.90
2019-06-07T00:34:00.650Z,99.90
2019-06-07T00:36:28.117Z,99.90
2019-06-07T00:38:55.603Z,99.90
2019-06-07T00:41:23.104Z,99.90
2019-06-07T00:43:50.559Z,99.90
2019-06-07T00:46:18.904Z,99.90
2019-06-07T00:48:47.284Z,99.90
2019-06-07T00:51:17.172Z,99.90
2019-06-07T00:53:44.098Z,99.90
2019-06-07T00:56:11.554Z,99.90
2019-06-07T00:58:38.986Z,99.90
2019-06-07T01:01:06.547Z,99.90
2019-06-07T01:03:33.995Z,99.90
2019-06-07T01:06:01.482Z,99.90
2019-06-07T01:08:30.262Z,99.90
2019-06-07T01:10:57.843Z,99.90
2019-06-07T01:13:26.991Z,99.90
2019-06-07T01:15:54.551Z,99.90
2019-06-07T01:18:43.498Z,99.90
2019-06-07T01:20:51.300Z,99.90
2019-06-07T01:23:54.270Z,99.90
2019-06-07T01:25:48.026Z,99.90
2019-06-07T01:28:16.661Z,99.90
2019-06-07T01:30:44.837Z,99.90
2019-06-07T01:33:12.306Z,99.90
2019-06-07T01:35:39.759Z,99.90
2019-06-07T01:38:07.239Z,99.90
2019-06-07T01:40:34.682Z,99.90
2019-06-07T01:43:02.124Z,99.90
2019-06-07T01:45:31.129Z,99.90
2019-06-07T01:47:58.769Z,99.90
2019-06-07T01:50:27.134Z,99.90
2019-06-07T01:52:54.684Z,99.90
2019-06-07T01:55:24.960Z,99.90
2019-06-07T01:57:51.413Z,99.90
2019-06-07T02:00:21.660Z,99.90
2019-06-07T02:02:49.021Z,99.90
2019-06-07T02:05:19.150Z,99.90
2019-06-07T02:07:45.845Z,99.90
2019-06-07T02:10:13.648Z,99.90
2019-06-07T02:12:43.623Z,99.90
2019-06-07T02:15:10.820Z,99.90
2019-06-07T02:17:38.312Z,99.90
2019-06-07T02:20:06.363Z,99.90
2019-06-07T02:22:33.843Z,99.90
2019-06-07T02:27:32.788Z,99.90
2019-06-07T02:30:00.164Z,99.90
2019-06-07T02:32:31.984Z,99.90
2019-06-07T02:34:56.940Z,99.90
2019-06-07T02:37:26.875Z,99.90
2019-06-07T02:39:53.672Z,99.90
2019-06-07T02:42:25.235Z,99.90
2019-06-07T02:44:50.445Z,99.90
2019-06-07T02:47:17.854Z,99.90
2019-06-07T02:49:45.284Z,99.90
2019-06-07T02:52:12.752Z,99.90
2019-06-07T02:54:40.934Z,99.90
2019-06-07T02:57:08.568Z,99.90
2019-06-07T03:00:02.838Z,99.90
2019-06-07T03:02:05.274Z,99.90
2019-06-07T03:04:40.570Z,99.90
2019-06-07T03:07:03.261Z,99.90
2019-06-07T03:09:34.410Z,99.90
2019-06-07T03:12:02.098Z,99.90
2019-06-07T03:14:35.243Z,99.90
2019-06-07T03:17:15.315Z,99.90
2019-06-07T03:19:45.292Z,99.90
2019-06-07T03:22:12.746Z,99.90
2019-06-07T03:24:44.126Z,99.90
2019-06-07T03:29:41.887Z,99.90
2019-06-07T03:32:09.308Z,99.90
2019-06-07T03:34:40.985Z,99.90
2019-06-07T03:37:06.038Z,99.90
2019-06-07T03:39:34.326Z,99.90
2019-06-07T03:42:06.783Z,99.90
2019-06-07T03:44:35.164Z,99.90
2019-06-07T03:47:01.325Z,99.90
2019-06-07T03:49:30.779Z,99.90
2019-06-07T03:51:58.056Z,99.90
2019-06-07T03:54:25.486Z,99.90
2019-06-07T03:56:52.963Z,99.90
2019-06-07T03:59:20.393Z,99.90
2019-06-07T04:01:48.721Z,99.90
2019-06-07T04:04:16.195Z,99.90
2019-06-07T04:06:43.667Z,99.90
2019-06-07T04:09:11.115Z,99.90
2019-06-07T04:11:39.401Z,99.90
2019-06-07T04:14:07.915Z,99.90
2019-06-07T04:16:40.416Z,99.90
2019-06-07T04:19:04.884Z,99.90
2019-06-07T04:21:35.082Z,99.90
2019-06-07T04:24:01.634Z,99.90
2019-06-07T04:26:31.429Z,99.90
2019-06-07T04:31:28.381Z,99.90
2019-06-07T04:33:55.941Z,99.90
2019-06-07T04:36:39.348Z,99.90
2019-06-07T04:38:54.135Z,99.90
2019-06-07T04:41:23.718Z,99.90
2019-06-07T04:43:51.157Z,99.90
2019-06-07T04:46:21.975Z,99.90
2019-06-07T04:48:50.478Z,99.90
2019-06-07T04:51:20.197Z,99.90
2019-06-07T04:53:47.689Z,99.90
2019-06-07T04:56:15.151Z,99.90
2019-06-07T04:58:43.253Z,99.90
2019-06-07T05:01:26.363Z,99.90
2019-06-07T05:03:44.064Z,99.90
2019-06-07T05:06:09.334Z,99.90
2019-06-07T05:08:40.573Z,99.90
2019-06-07T05:11:06.603Z,99.90
2019-06-07T05:13:36.740Z,99.90
2019-06-07T05:16:03.638Z,99.90
2019-06-07T05:18:33.658Z,99.90
2019-06-07T05:21:00.407Z,99.90
2019-06-07T05:24:02.538Z,99.90
2019-06-07T05:25:57.081Z,99.90
2019-06-07T05:28:24.546Z,99.90
2019-06-07T05:31:08.138Z,99.90
2019-06-07T05:33:21.423Z,99.90
2019-06-07T05:35:48.898Z,99.90
2019-06-07T05:38:16.355Z,99.90
2019-06-07T05:40:48.574Z,99.90
2019-06-07T05:43:24.287Z,99.90
2019-06-07T05:45:51.716Z,99.90
2019-06-07T05:48:19.163Z,99.90
2019-06-07T05:50:56.061Z,99.90
2019-06-07T05:53:15.873Z,99.90
2019-06-07T05:55:46.860Z,99.90
2019-06-07T05:58:12.621Z,99.90
2019-06-07T06:00:41.500Z,99.90
2019-06-07T06:03:09.659Z,99.90
2019-06-07T06:05:42.118Z,99.90
2019-06-07T06:08:06.358Z,99.90
2019-06-07T06:10:34.061Z,99.90
2019-06-07T06:13:01.573Z,99.90
2019-06-07T06:15:42.215Z,99.90
2019-06-07T06:17:58.382Z,99.90
2019-06-07T06:20:32.794Z,99.90
2019-06-07T06:22:55.063Z,99.90
2019-06-07T06:25:32.957Z,99.90
2019-06-07T06:28:12.460Z,99.90
2019-06-07T06:30:23.129Z,99.90
2019-06-07T06:32:57.441Z,99.90
2019-06-07T06:35:19.839Z,99.90
2019-06-07T06:37:53.060Z,99.90
2019-06-07T06:40:16.879Z,99.90
2019-06-07T06:42:45.432Z,99.90
2019-06-07T06:45:15.564Z,99.90
2019-06-07T06:47:43.947Z,99.90
2019-06-07T06:50:12.662Z,99.90
2019-06-07T06:52:43.632Z,99.90
2019-06-07T06:55:09.602Z,99.90
2019-06-07T06:57:40.196Z,99.90
2019-06-07T07:00:07.771Z,99.90
2019-06-07T07:03:06.105Z,99.90
2019-06-07T07:05:05.668Z,99.90
2019-06-07T07:07:33.431Z,99.90
2019-06-07T07:10:03.151Z,99.90
2019-06-07T07:12:30.870Z,99.90
2019-06-07T07:14:58.357Z,99.90
2019-06-07T07:17:47.154Z,99.90
2019-06-07T07:19:55.811Z,99.90
2019-06-07T07:22:23.304Z,99.90
2019-06-07T07:24:53.347Z,99.90
2019-06-07T07:27:20.334Z,99.90
2019-06-07T07:29:52.623Z,99.90
2019-06-07T07:32:17.488Z,99.90
2019-06-07T07:34:46.022Z,99.90
2019-06-07T07:37:14.259Z,99.90
2019-06-07T07:39:41.696Z,99.90
2019-06-07T07:42:20.721Z,99.90
2019-06-07T07:44:38.760Z,99.90
2019-06-07T07:47:06.482Z,99.90
2019-06-07T07:49:33.952Z,99.90
2019-06-07T07:52:01.730Z,99.90
2019-06-07T07:54:29.243Z,99.90
2019-06-07T07:56:57.392Z,99.90
2019-06-07T07:59:41.166Z,99.90
2019-06-07T08:01:56.003Z,99.90
2019-06-07T08:04:39.569Z,99.90
2019-06-07T08:06:55.713Z,99.90
2019-06-07T08:09:21.991Z,99.90
2019-06-07T08:11:51.934Z,99.90
2019-06-07T08:14:18.699Z,99.90
2019-06-07T08:16:47.023Z,99.90
2019-06-07T08:19:14.531Z,99.90
2019-06-07T08:21:41.948Z,99.90
2019-06-07T08:24:09.401Z,99.90
2019-06-07T08:26:36.846Z,99.90
2019-06-07T08:29:04.623Z,99.90
2019-06-07T08:31:32.044Z,99.90
2019-06-07T08:34:00.716Z,99.90
2019-06-07T08:36:41.478Z,99.90
2019-06-07T08:39:05.722Z,99.90
2019-06-07T08:41:27.100Z,99.90
2019-06-07T08:43:57.867Z,99.90
2019-06-07T08:46:23.833Z,99.90
2019-06-07T08:48:53.356Z,99.90
2019-06-07T08:51:20.602Z,99.90
2019-06-07T08:54:02.773Z,99.90
2019-06-07T08:56:17.668Z,99.90
2019-06-07T08:58:45.171Z,99.90
2019-06-07T09:01:12.868Z,99.90
2019-06-07T09:03:40.352Z,99.90
2019-06-07T09:06:53.778Z,99.90
2019-06-07T09:08:37.073Z,99.90
2019-06-07T09:11:10.466Z,99.90
2019-06-07T09:13:33.877Z,99.90
2019-06-07T09:16:08.074Z,99.90
2019-06-07T09:18:42.308Z,99.90
2019-06-07T09:21:01.202Z,99.90
2019-06-07T09:23:29.207Z,99.90
2019-06-07T09:26:05.181Z,99.90
2019-06-07T09:28:26.329Z,99.90
2019-06-07T09:30:53.811Z,99.90
2019-06-07T09:33:21.254Z,99.90
2019-06-07T09:35:48.737Z,99.90
2019-06-07T09:38:25.794Z,99.90
2019-06-07T09:40:45.452Z,99.90
2019-06-07T09:45:42.183Z,99.90
2019-06-07T09:48:15.723Z,99.90
2019-06-07T09:50:38.925Z,99.90
2019-06-07T09:53:20.342Z,99.90
2019-06-07T09:55:35.713Z,99.90
2019-06-07T09:58:30.890Z,99.90
2019-06-07T10:00:40.571Z,99.90
2019-06-07T10:03:08.853Z,99.90
2019-06-07T10:05:31.108Z,99.90
2019-06-07T10:08:12.389Z,99.90
2019-06-07T10:12:57.204Z,99.90
2019-06-07T10:15:24.653Z,99.90
2019-06-07T10:17:52.091Z,99.90
2019-06-07T10:20:19.599Z,99.90
2019-06-07T10:22:47.083Z,99.90
2019-06-07T10:25:14.851Z,99.90
2019-06-07T10:27:42.383Z,99.90
2019-06-07T10:30:10.437Z,99.90
2019-06-07T10:32:37.950Z,99.90
2019-06-07T10:35:07.630Z,99.90
2019-06-07T10:37:35.575Z,99.90
2019-06-07T10:40:04.825Z,99.90
2019-06-07T10:42:32.302Z,99.90
2019-06-07T10:45:02.054Z,99.90
2019-06-07T10:47:29.048Z,99.90
2019-06-07T10:49:56.540Z,99.90
2019-06-07T10:52:24.420Z,99.90
2019-06-07T10:54:51.884Z,99.90
2019-06-07T10:57:19.373Z,99.90
2019-06-07T10:59:46.845Z,99.90
2019-06-07T11:02:14.348Z,99.90
2019-06-07T11:04:41.851Z,99.90
2019-06-07T11:07:10.084Z,99.90
2019-06-07T11:09:38.079Z,99.90
2019-06-07T11:12:06.407Z,99.90
2019-06-07T11:14:34.284Z,99.90
2019-06-07T11:17:01.784Z,99.90
2019-06-07T11:19:29.324Z,99.90
2019-06-07T11:21:57.047Z,99.90
2019-06-07T11:24:24.903Z,99.90
2019-06-07T11:26:52.412Z,99.90
2019-06-07T11:29:19.833Z,99.90
2019-06-07T11:31:47.680Z,99.90
2019-06-07T11:34:15.173Z,99.90
2019-06-07T11:36:42.631Z,99.90
2019-06-07T11:39:11.078Z,99.90
2019-06-07T11:41:38.684Z,99.90
2019-06-07T11:44:06.708Z,99.90
2019-06-07T11:46:34.308Z,99.90
2019-06-07T11:49:01.819Z,99.80
2019-06-07T11:51:29.320Z,99.20
2019-06-07T11:53:56.847Z,99.10
2019-06-07T11:56:24.764Z,99.10
2019-06-07T11:58:52.324Z,98.80
2019-06-07T12:01:20.350Z,98.70
2019-06-07T12:03:47.827Z,97.90
2019-06-07T12:06:16.419Z,96.70
2019-06-07T12:08:44.060Z,96.60
2019-06-07T12:11:12.203Z,96.90
2019-06-07T12:13:39.704Z,95.30
2019-06-07T12:16:07.197Z,95.50
2019-06-07T12:18:34.721Z,94.40
2019-06-07T12:21:02.244Z,94.20
2019-06-07T12:23:29.735Z,93.50
2019-06-07T12:25:57.269Z,92.90
2019-06-07T12:28:24.785Z,91.70
2019-06-07T12:30:55.097Z,91.90
2019-06-07T12:33:21.736Z,91.10
2019-06-07T12:35:49.288Z,91.30
2019-06-07T12:38:18.840Z,91.10
2019-06-07T12:40:57.182Z,91.50
2019-06-07T12:43:16.723Z,91.50
2019-06-07T12:45:45.627Z,91.40
2019-06-07T12:48:17.535Z,90.50
2019-06-07T12:50:43.939Z,90.20
2019-06-07T12:53:11.752Z,89.80
2019-06-07T12:55:39.220Z,88.40
2019-06-07T12:58:06.691Z,88.90
2019-06-07T13:00:34.278Z,86.80
2019-06-07T13:03:01.690Z,87.70
2019-06-07T13:05:29.188Z,84.60
2019-06-07T13:07:56.685Z,85.40
2019-06-07T13:10:26.380Z,86.20
2019-06-07T13:12:53.923Z,87.40
2019-06-07T13:15:24.487Z,84.00
2019-06-07T13:17:51.913Z,81.20
2019-06-07T13:20:20.393Z,80.40
2019-06-07T13:22:48.092Z,81.80
2019-06-07T13:25:16.316Z,82.70
2019-06-07T13:27:43.941Z,83.80
2019-06-07T13:30:13.253Z,82.10
2019-06-07T13:32:40.712Z,81.10
2019-06-07T13:35:09.189Z,81.50
2019-06-07T13:37:36.920Z,79.60
2019-06-07T13:40:05.522Z,78.60
2019-06-07T13:42:33.839Z,76.40
2019-06-07T13:45:01.326Z,75.60
2019-06-07T13:47:28.818Z,76.50
2019-06-07T13:49:56.370Z,75.20
2019-06-07T13:52:23.837Z,75.00
2019-06-07T13:54:51.336Z,76.00
2019-06-07T13:57:19.971Z,74.50
2019-06-07T13:59:47.512Z,73.30
2019-06-07T14:02:14.969Z,72.20
2019-06-07T14:04:42.465Z,71.10
2019-06-07T14:07:09.950Z,69.20
2019-06-07T14:09:37.460Z,69.50
2019-06-07T14:12:04.922Z,69.60
2019-06-07T14:14:32.396Z,69.00
2019-06-07T14:16:59.905Z,66.80
2019-06-07T14:19:28.651Z,66.80
2019-06-07T14:21:56.259Z,66.10
2019-06-07T14:24:25.154Z,66.40
2019-06-07T14:27:07.891Z,65.50
2019-06-07T14:29:36.351Z,66.90
2019-06-07T14:32:05.787Z,65.70
2019-06-07T14:34:33.378Z,65.50
2019-06-07T14:37:00.854Z,65.70
2019-06-07T14:39:29.611Z,64.50
2019-06-07T14:42:08.387Z,65.10
2019-06-07T14:44:27.775Z,64.80
2019-06-07T14:46:55.846Z,64.40
2019-06-07T14:49:24.467Z,63.90
2019-06-07T14:51:52.161Z,63.60
2019-06-07T14:54:19.673Z,61.60
2019-06-07T14:56:47.140Z,60.60
2019-06-07T14:59:14.667Z,60.60
2019-06-07T15:01:42.070Z,60.20
2019-06-07T15:04:09.525Z,60.40
2019-06-07T15:06:37.015Z,59.80
2019-06-07T15:09:05.467Z,60.10
2019-06-07T15:11:33.172Z,59.00
2019-06-07T15:14:00.805Z,58.80
2019-06-07T15:16:30.127Z,59.10
2019-06-07T15:18:58.057Z,59.70
2019-06-07T15:21:26.612Z,59.90
2019-06-07T15:23:54.207Z,58.90
2019-06-07T15:26:22.004Z,58.70
2019-06-07T15:28:49.587Z,58.50
2019-06-07T15:31:18.382Z,58.30
2019-06-07T15:33:46.143Z,58.00
2019-06-07T15:36:13.642Z,57.10
2019-06-07T15:38:41.177Z,57.20
2019-06-07T15:41:08.882Z,57.60
2019-06-07T15:43:37.431Z,57.10
2019-06-07T15:46:05.042Z,56.40
2019-06-07T15:48:33.873Z,56.50
2019-06-07T15:51:01.525Z,57.50
2019-06-07T15:53:32.723Z,56.70
2019-06-07T15:55:58.325Z,56.10
2019-06-07T15:58:25.847Z,57.10
2019-06-07T16:00:53.625Z,56.30
2019-06-07T16:03:21.087Z,56.50
2019-06-07T16:05:48.600Z,56.70
2019-06-07T16:08:16.415Z,57.20
2019-06-07T16:10:44.073Z,56.40
2019-06-07T16:13:11.971Z,56.50
2019-06-07T16:15:39.455Z,55.70
2019-06-07T16:18:06.972Z,55.60
2019-06-07T16:20:35.211Z,57.40
2019-06-07T16:23:02.857Z,56.70
2019-06-07T16:25:30.350Z,56.90
2019-06-07T16:27:58.197Z,57.60
2019-06-07T16:30:25.650Z,57.40
2019-06-07T16:32:53.116Z,56.10
2019-06-07T16:35:20.620Z,56.00
2019-06-07T16:37:51.644Z,54.80
2019-06-07T16:40:17.504Z,55.20
2019-06-07T16:42:45.295Z,56.50
2019-06-07T16:45:13.623Z,57.80
2019-06-07T16:47:42.944Z,58.90
2019-06-07T16:50:11.285Z,59.50
2019-06-07T16:52:39.163Z,60.30
2019-06-07T16:55:07.367Z,60.50
2019-06-07T16:57:34.837Z,60.30
2019-06-07T17:00:04.135Z,60.60
2019-06-07T17:02:31.596Z,59.80
2019-06-07T17:04:59.079Z,59.30
2019-06-07T17:07:26.541Z,59.50
2019-06-07T17:09:53.998Z,59.80
2019-06-07T17:12:21.494Z,60.20
2019-06-07T17:14:49.018Z,61.40
2019-06-07T17:17:16.551Z,62.20
2019-06-07T17:19:44.989Z,62.80
2019-06-07T17:22:12.617Z,63.50
2019-06-07T17:24:41.235Z,65.10
2019-06-07T17:27:08.860Z,66.10
2019-06-07T17:29:36.740Z,66.10
2019-06-07T17:32:04.249Z,66.20
2019-06-07T17:34:31.708Z,66.50
2019-06-07T17:36:59.220Z,66.70
2019-06-07T17:39:26.676Z,67.30
2019-06-07T17:42:01.818Z,67.60
2019-06-07T17:44:23.476Z,67.90
2019-06-07T17:46:51.815Z,68.60
2019-06-07T17:49:19.308Z,68.60
2019-06-07T17:51:48.020Z,69.50
2019-06-07T17:54:16.248Z,69.40
2019-06-07T17:56:44.507Z,72.60
2019-06-07T17:59:12.032Z,73.30
2019-06-07T18:01:41.695Z,73.90
2019-06-07T18:04:08.757Z,73.50
2019-06-07T18:06:38.220Z,73.60
2019-06-07T18:09:07.212Z,75.00
2019-06-07T18:11:34.763Z,74.30
2019-06-07T18:14:10.146Z,77.70
2019-06-07T18:16:31.632Z,80.20
2019-06-07T18:18:59.116Z,82.20
2019-06-07T18:21:26.595Z,83.90
2019-06-07T18:23:54.792Z,85.90
2019-06-07T18:26:22.374Z,86.90
2019-06-07T18:28:50.585Z,88.40
2019-06-07T18:31:18.168Z,91.20
2019-06-07T18:33:46.842Z,91.50
2019-06-07T18:36:14.363Z,92.10
2019-06-07T18:38:42.155Z,93.10
2019-06-07T18:41:09.630Z,94.00
2019-06-07T18:43:37.111Z,94.20
2019-06-07T18:46:04.608Z,95.50
2019-06-07T18:48:32.060Z,97.60
2019-06-07T18:50:59.554Z,99.90
2019-06-07T18:53:27.023Z,99.90
2019-06-07T18:55:54.557Z,99.90
2019-06-07T18:58:22.065Z,99.90
2019-06-07T19:00:49.902Z,99.90
2019-06-07T19:03:17.756Z,99.90
2019-06-07T19:05:45.286Z,99.90
2019-06-07T19:08:12.883Z,99.90
2019-06-07T19:10:40.558Z,99.90
2019-06-07T19:13:08.052Z,99.90
2019-06-07T19:15:35.715Z,99.90
2019-06-07T19:18:03.474Z,99.90
2019-06-07T19:20:31.288Z,99.90
2019-06-07T19:22:58.771Z,99.90
2019-06-07T19:25:26.244Z,99.90
2019-06-07T19:27:54.980Z,99.90
2019-06-07T19:30:22.628Z,99.90
2019-06-07T19:32:51.374Z,99.90
2019-06-07T19:35:19.558Z,99.90
2019-06-07T19:37:47.060Z,99.90
2019-06-07T19:40:14.935Z,99.90
2019-06-07T19:42:42.399Z,99.90
2019-06-07T19:45:29.729Z,99.90
2019-06-07T19:47:39.857Z,99.90
2019-06-07T19:50:07.480Z,99.90
2019-06-07T19:52:34.938Z,99.90
2019-06-07T19:55:06.636Z,99.90
2019-06-07T19:57:31.769Z,99.90
2019-06-07T19:59:59.567Z,99.90
2019-06-07T20:02:27.156Z,99.90
2019-06-07T20:04:59.172Z,99.90
2019-06-07T20:07:23.952Z,99.90
2019-06-07T20:09:51.711Z,99.90
2019-06-07T20:12:19.235Z,99.90
2019-06-07T20:14:46.803Z,99.90
2019-06-07T20:17:14.263Z,99.90
2019-06-07T20:19:41.744Z,99.90
2019-06-07T20:22:09.536Z,99.90
2019-06-07T20:24:38.135Z,99.90
2019-06-07T20:27:05.769Z,99.90
2019-06-07T20:29:33.320Z,99.90
2019-06-07T20:32:00.846Z,99.90
2019-06-07T20:34:28.320Z,99.90
2019-06-07T20:36:55.860Z,99.90
2019-06-07T20:39:23.706Z,99.90
2019-06-07T20:41:51.226Z,99.90
2019-06-07T20:44:18.719Z,99.90
2019-06-07T20:46:46.169Z,99.90
2019-06-07T20:49:13.676Z,99.90
2019-06-07T20:51:41.540Z,99.90
2019-06-07T20:54:09.345Z,99.90
2019-06-07T20:56:36.807Z,99.90
2019-06-07T20:59:04.781Z,99.90
2019-06-07T21:01:32.348Z,99.90
2019-06-07T21:04:01.022Z,99.90
2019-06-07T21:06:28.586Z,99.90
2019-06-07T21:08:56.182Z,99.90
2019-06-07T21:11:23.634Z,99.90
2019-06-07T21:13:51.114Z,99.90
2019-06-07T21:16:18.594Z,99.90
2019-06-07T21:18:46.074Z,99.90
2019-06-07T21:21:13.515Z,99.90
2019-06-07T21:23:41.000Z,99.90
2019-06-07T21:26:09.035Z,99.90
2019-06-07T21:28:39.683Z,99.90
2019-06-07T21:31:06.563Z,99.90
2019-06-07T21:33:34.163Z,99.90
2019-06-07T21:36:01.628Z,99.90
2019-06-07T21:38:29.169Z,99.90
2019-06-07T21:40:56.644Z,99.90
2019-06-07T21:43:24.185Z,99.90
2019-06-07T21:46:04.471Z,99.90
2019-06-07T21:48:20.929Z,99.90
2019-06-07T21:50:48.376Z,99.90
2019-06-07T21:53:15.858Z,99.90
2019-06-07T21:55:43.346Z,99.90
2019-06-07T21:58:11.243Z,99.90
2019-06-07T22:01:14.390Z,99.90
2019-06-07T22:03:42.063Z,99.90
2019-06-07T22:06:09.765Z,99.90
2019-06-07T22:08:37.304Z,99.90
2019-06-07T22:11:06.087Z,99.90
2019-06-07T22:13:33.738Z,99.90
2019-06-07T22:16:01.459Z,99.90
2019-06-07T22:18:28.896Z,99.90
2019-06-07T22:20:56.350Z,99.90
2019-06-07T22:23:23.791Z,99.90
2019-06-07T22:25:51.281Z,99.90
2019-06-07T22:28:18.726Z,99.90
2019-06-07T22:30:46.234Z,99.90
2019-06-07T22:33:15.054Z,99.90
2019-06-07T22:35:43.307Z,99.90
2019-06-07T22:38:10.790Z,99.90
2019-06-07T22:40:38.526Z,99.90
2019-06-07T22:43:07.267Z,99.90
2019-06-07T22:45:35.986Z,99.90
2019-06-07T22:48:03.903Z,99.90
2019-06-07T22:50:31.505Z,99.90
2019-06-07T22:52:58.981Z,99.90
2019-06-07T22:55:26.475Z,99.90
2019-06-07T22:57:57.811Z,99.90
2019-06-07T23:00:26.743Z,99.90
2019-06-07T23:02:54.521Z,99.90
2019-06-07T23:05:22.060Z,99.90
2019-06-07T23:07:49.555Z,99.90
2019-06-07T23:10:17.428Z,99.90
2019-06-07T23:12:45.036Z,99.90
2019-06-07T23:15:13.328Z,99.90
2019-06-07T23:17:40.955Z,99.90
2019-06-07T23:20:09.648Z,99.90
2019-06-07T23:22:37.159Z,99.90
2019-06-07T23:25:05.266Z,99.90
2019-06-07T23:27:32.738Z,99.90
2019-06-07T23:30:07.965Z,99.90
2019-06-07T23:32:29.830Z,99.90
2019-06-07T23:34:57.318Z,99.90
2019-06-07T23:37:24.822Z,99.90
2019-06-07T23:39:52.307Z,99.90
2019-06-07T23:42:19.808Z,99.90
2019-06-07T23:44:47.217Z,99.90
2019-06-07T23:47:16.979Z,99.90
2019-06-07T23:49:43.934Z,99.90
2019-06-07T23:52:11.837Z,99.90
2019-06-07T23:54:39.510Z,99.90
2019-06-07T23:57:06.988Z,99.90
2019-06-07T23:59:34.476Z,99.90
